sensor_id;sensor_type;location;lat;lon;timestamp;pressure;altitude;pressure_sealevel;temperature;humidity
62152;BME280;48139;47.474;19.034;2023-07-28T03:48:16;99996.94;;;18.30;91.59
62152;BME280;48139;47.474;19.034;2023-07-28T03:51:19;99996.94;;;18.30;91.59
62152;BME280;48139;47.474;19.034;2023-07-28T03:54:21;99998.88;;;17.86;93.00
62152;BME280;48139;47.474;19.034;2023-07-28T03:57:27;99998.59;;;17.89;93.15
62152;BME280;48139;47.474;19.034;2023-07-28T04:00:29;100006.31;;;17.92;92.86
62152;BME280;48139;47.474;19.034;2023-07-28T04:03:32;99999.88;;;17.95;92.91
62152;BME280;48139;47.474;19.034;2023-07-28T04:06:45;100000.22;;;18.01;92.84
62152;BME280;48139;47.474;19.034;2023-07-28T04:09:49;99998.22;;;18.14;91.43
62152;BME280;48139;47.474;19.034;2023-07-28T04:12:51;100004.03;;;18.08;91.69
62152;BME280;48139;47.474;19.034;2023-07-28T04:15:54;100008.25;;;18.11;91.14
62152;BME280;48139;47.474;19.034;2023-07-28T04:18:57;100018.72;;;18.12;90.47
62152;BME280;48139;47.474;19.034;2023-07-28T04:22:00;100019.25;;;18.27;88.00
62152;BME280;48139;47.474;19.034;2023-07-28T04:25:04;100011.22;;;18.38;87.11
62152;BME280;48139;47.474;19.034;2023-07-28T04:28:08;100008.25;;;18.52;85.58
62152;BME280;48139;47.474;19.034;2023-07-28T04:31:12;100009.87;;;18.65;83.59
62152;BME280;48139;47.474;19.034;2023-07-28T04:34:17;100006.50;;;18.63;83.38
62152;BME280;48139;47.474;19.034;2023-07-28T04:37:20;100013.25;;;18.67;83.84
62152;BME280;48139;47.474;19.034;2023-07-28T04:40:24;100012.44;;;18.76;82.22
62152;BME280;48139;47.474;19.034;2023-07-28T04:43:28;100015.94;;;18.76;82.87
62152;BME280;48139;47.474;19.034;2023-07-28T04:46:30;100015.41;;;18.82;82.33
62152;BME280;48139;47.474;19.034;2023-07-28T04:49:33;100001.59;;;18.88;82.46
62152;BME280;48139;47.474;19.034;2023-07-28T04:52:41;99989.22;;;18.99;80.36
62152;BME280;48139;47.474;19.034;2023-07-28T04:55:45;99985.72;;;18.98;81.07
62152;BME280;48139;47.474;19.034;2023-07-28T04:58:48;99984.19;;;19.05;80.45
62152;BME280;48139;47.474;19.034;2023-07-28T05:01:50;99980.72;;;19.05;80.29
62152;BME280;48139;47.474;19.034;2023-07-28T05:04:53;99988.97;;;19.11;79.54
62152;BME280;48139;47.474;19.034;2023-07-28T05:07:55;99986.50;;;19.29;78.81
62152;BME280;48139;47.474;19.034;2023-07-28T05:10:58;99996.84;;;19.32;80.84
62152;BME280;48139;47.474;19.034;2023-07-28T05:14:02;100000.03;;;19.26;78.87
62152;BME280;48139;47.474;19.034;2023-07-28T05:17:05;99986.94;;;19.34;77.60
62152;BME280;48139;47.474;19.034;2023-07-28T05:20:08;99989.84;;;19.31;78.43
62152;BME280;48139;47.474;19.034;2023-07-28T05:23:11;99985.97;;;19.45;77.40
62152;BME280;48139;47.474;19.034;2023-07-28T05:26:14;99982.53;;;19.54;76.48
62152;BME280;48139;47.474;19.034;2023-07-28T05:29:16;99985.84;;;19.56;77.21
62152;BME280;48139;47.474;19.034;2023-07-28T05:32:19;99983.34;;;19.64;77.40
62152;BME280;48139;47.474;19.034;2023-07-28T05:35:22;99988.25;;;19.68;77.51
62152;BME280;48139;47.474;19.034;2023-07-28T05:38:25;100001.81;;;19.65;77.60
62152;BME280;48139;47.474;19.034;2023-07-28T05:41:28;99991.47;;;19.72;77.38
62152;BME280;48139;47.474;19.034;2023-07-28T05:44:30;99995.53;;;19.76;78.47
62152;BME280;48139;47.474;19.034;2023-07-28T05:47:33;99999.88;;;19.67;79.82
62152;BME280;48139;47.474;19.034;2023-07-28T05:50:38;100004.91;;;19.70;81.07
62152;BME280;48139;47.474;19.034;2023-07-28T05:53:42;100008.53;;;19.69;79.94
62152;BME280;48139;47.474;19.034;2023-07-28T05:56:45;100026.59;;;19.76;79.41
62152;BME280;48139;47.474;19.034;2023-07-28T05:59:49;100025.19;;;19.71;79.28
62152;BME280;48139;47.474;19.034;2023-07-28T06:02:52;100031.06;;;19.85;79.96
62152;BME280;48139;47.474;19.034;2023-07-28T06:05:58;100027.59;;;20.03;77.67
62152;BME280;48139;47.474;19.034;2023-07-28T06:09:01;100028.25;;;20.25;77.95
62152;BME280;48139;47.474;19.034;2023-07-28T06:12:04;100024.63;;;20.16;75.62
62152;BME280;48139;47.474;19.034;2023-07-28T06:15:07;100039.19;;;20.12;75.34
62152;BME280;48139;47.474;19.034;2023-07-28T06:18:10;100031.19;;;20.31;75.11
62152;BME280;48139;47.474;19.034;2023-07-28T06:21:13;100040.00;;;20.51;73.04
62152;BME280;48139;47.474;19.034;2023-07-28T06:24:15;100033.97;;;20.59;72.11
62152;BME280;48139;47.474;19.034;2023-07-28T06:27:18;100027.22;;;20.74;71.08
62152;BME280;48139;47.474;19.034;2023-07-28T06:30:22;100020.63;;;20.68;71.91
62152;BME280;48139;47.474;19.034;2023-07-28T06:33:25;100030.13;;;20.80;72.27
62152;BME280;48139;47.474;19.034;2023-07-28T06:36:28;100016.84;;;21.17;70.37
62152;BME280;48139;47.474;19.034;2023-07-28T06:39:34;100023.66;;;21.29;70.64
62152;BME280;48139;47.474;19.034;2023-07-28T06:42:37;100029.28;;;21.44;69.01
62152;BME280;48139;47.474;19.034;2023-07-28T06:45:40;100029.06;;;21.55;69.08
62152;BME280;48139;47.474;19.034;2023-07-28T06:48:43;100024.63;;;21.73;66.73
62152;BME280;48139;47.474;19.034;2023-07-28T06:51:45;100024.13;;;22.31;62.53
62152;BME280;48139;47.474;19.034;2023-07-28T06:54:48;100022.97;;;22.51;61.38
62152;BME280;48139;47.474;19.034;2023-07-28T06:57:51;100010.81;;;22.57;60.91
62152;BME280;48139;47.474;19.034;2023-07-28T07:00:54;100021.59;;;22.47;60.54
62152;BME280;48139;47.474;19.034;2023-07-28T07:03:57;100000.75;;;22.51;60.70
62152;BME280;48139;47.474;19.034;2023-07-28T07:07:00;99996.16;;;22.87;58.79
62152;BME280;48139;47.474;19.034;2023-07-28T07:10:05;99997.44;;;22.75;60.23
62152;BME280;48139;47.474;19.034;2023-07-28T07:13:09;99987.59;;;22.75;60.47
62152;BME280;48139;47.474;19.034;2023-07-28T07:16:17;99993.22;;;23.06;59.06
62152;BME280;48139;47.474;19.034;2023-07-28T07:19:27;99988.66;;;23.32;58.16
62152;BME280;48139;47.474;19.034;2023-07-28T07:22:30;99994.88;;;23.41;56.98
62152;BME280;48139;47.474;19.034;2023-07-28T07:25:33;99993.13;;;23.82;55.10
62152;BME280;48139;47.474;19.034;2023-07-28T07:28:37;99990.44;;;23.82;55.22
62152;BME280;48139;47.474;19.034;2023-07-28T07:31:40;99992.28;;;23.65;55.95
62152;BME280;48139;47.474;19.034;2023-07-28T07:34:42;99987.94;;;23.73;55.15
62152;BME280;48139;47.474;19.034;2023-07-28T07:37:45;99983.59;;;23.88;52.86
62152;BME280;48139;47.474;19.034;2023-07-28T07:40:48;99984.75;;;23.93;51.97
62152;BME280;48139;47.474;19.034;2023-07-28T07:43:53;99985.59;;;23.94;50.78
62152;BME280;48139;47.474;19.034;2023-07-28T07:46:55;99979.75;;;24.06;50.43
62152;BME280;48139;47.474;19.034;2023-07-28T07:49:58;99978.44;;;24.10;51.08
62152;BME280;48139;47.474;19.034;2023-07-28T07:53:02;99971.72;;;24.06;51.70
62152;BME280;48139;47.474;19.034;2023-07-28T07:56:09;99974.22;;;24.00;52.27
62152;BME280;48139;47.474;19.034;2023-07-28T07:59:11;99971.75;;;23.98;52.60
62152;BME280;48139;47.474;19.034;2023-07-28T08:02:14;99965.69;;;23.80;52.34
62152;BME280;48139;47.474;19.034;2023-07-28T08:05:17;99971.94;;;23.30;54.24
62152;BME280;48139;47.474;19.034;2023-07-28T08:08:21;99968.09;;;23.33;53.97
62152;BME280;48139;47.474;19.034;2023-07-28T08:11:24;99962.37;;;23.20;54.34
62152;BME280;48139;47.474;19.034;2023-07-28T08:14:27;99963.91;;;23.22;55.04
62152;BME280;48139;47.474;19.034;2023-07-28T08:17:29;99974.88;;;23.11;55.09
62152;BME280;48139;47.474;19.034;2023-07-28T08:20:32;99963.75;;;23.32;55.57
62152;BME280;48139;47.474;19.034;2023-07-28T08:23:34;99961.94;;;23.41;54.90
62152;BME280;48139;47.474;19.034;2023-07-28T08:26:37;99970.97;;;23.40;53.46
62152;BME280;48139;47.474;19.034;2023-07-28T08:29:40;99967.00;;;23.52;54.54
62152;BME280;48139;47.474;19.034;2023-07-28T08:32:43;99969.19;;;23.56;55.13
62152;BME280;48139;47.474;19.034;2023-07-28T08:35:46;99970.19;;;23.63;53.78
62152;BME280;48139;47.474;19.034;2023-07-28T08:38:48;99969.72;;;23.84;52.44
62152;BME280;48139;47.474;19.034;2023-07-28T08:41:58;99966.56;;;23.97;52.11
62152;BME280;48139;47.474;19.034;2023-07-28T08:45:02;99968.25;;;24.22;50.91
62152;BME280;48139;47.474;19.034;2023-07-28T08:48:07;99953.34;;;24.28;50.97
62152;BME280;48139;47.474;19.034;2023-07-28T08:51:12;99942.72;;;24.59;50.14
62152;BME280;48139;47.474;19.034;2023-07-28T08:54:16;99944.34;;;24.76;50.04
62152;BME280;48139;47.474;19.034;2023-07-28T08:57:19;99938.75;;;24.94;49.09
62152;BME280;48139;47.474;19.034;2023-07-28T09:00:23;99938.75;;;25.24;47.88
62152;BME280;48139;47.474;19.034;2023-07-28T09:03:27;99939.09;;;25.60;46.56
62152;BME280;48139;47.474;19.034;2023-07-28T09:06:30;99927.38;;;25.76;46.69
62152;BME280;48139;47.474;19.034;2023-07-28T09:09:35;99923.06;;;25.90;46.32
62152;BME280;48139;47.474;19.034;2023-07-28T09:12:46;99918.31;;;25.77;46.33
62152;BME280;48139;47.474;19.034;2023-07-28T09:15:49;99916.66;;;25.76;46.72
62152;BME280;48139;47.474;19.034;2023-07-28T09:19:06;99928.50;;;26.04;45.87
62152;BME280;48139;47.474;19.034;2023-07-28T09:22:09;99905.53;;;26.17;45.04
62152;BME280;48139;47.474;19.034;2023-07-28T09:25:16;99914.06;;;26.20;45.32
62152;BME280;48139;47.474;19.034;2023-07-28T09:28:19;99919.28;;;26.51;45.23
62152;BME280;48139;47.474;19.034;2023-07-28T09:31:29;99923.94;;;26.57;45.36
62152;BME280;48139;47.474;19.034;2023-07-28T09:34:32;99914.75;;;26.66;45.53
62152;BME280;48139;47.474;19.034;2023-07-28T09:37:37;99929.66;;;26.83;44.51
62152;BME280;48139;47.474;19.034;2023-07-28T09:40:41;99912.72;;;26.54;45.29
62152;BME280;48139;47.474;19.034;2023-07-28T09:43:45;99923.00;;;26.50;45.75
62152;BME280;48139;47.474;19.034;2023-07-28T09:46:55;99917.81;;;26.48;45.88
62152;BME280;48139;47.474;19.034;2023-07-28T09:50:01;99906.69;;;26.52;45.97
62152;BME280;48139;47.474;19.034;2023-07-28T09:53:08;99916.59;;;26.66;45.91
62152;BME280;48139;47.474;19.034;2023-07-28T09:56:14;99912.81;;;26.89;45.36
62152;BME280;48139;47.474;19.034;2023-07-28T09:59:19;99902.72;;;26.92;46.21
62152;BME280;48139;47.474;19.034;2023-07-28T10:02:23;99903.91;;;27.25;45.52
62152;BME280;48139;47.474;19.034;2023-07-28T10:05:27;99898.97;;;27.50;45.34
62152;BME280;48139;47.474;19.034;2023-07-28T10:08:31;99900.22;;;27.68;44.78
62152;BME280;48139;47.474;19.034;2023-07-28T10:11:34;99899.66;;;28.01;44.48
62152;BME280;48139;47.474;19.034;2023-07-28T10:14:37;99895.16;;;28.08;43.67
62152;BME280;48139;47.474;19.034;2023-07-28T10:17:43;99887.91;;;28.08;43.46
62152;BME280;48139;47.474;19.034;2023-07-28T10:20:46;99898.62;;;28.23;43.38
62152;BME280;48139;47.474;19.034;2023-07-28T10:23:56;99902.53;;;28.21;43.79
62152;BME280;48139;47.474;19.034;2023-07-28T10:27:00;99897.69;;;28.44;43.73
62152;BME280;48139;47.474;19.034;2023-07-28T10:30:05;99900.94;;;28.67;42.41
62152;BME280;48139;47.474;19.034;2023-07-28T10:33:27;99900.28;;;28.59;42.60
62152;BME280;48139;47.474;19.034;2023-07-28T10:39:34;99898.94;;;28.41;42.37
62152;BME280;48139;47.474;19.034;2023-07-28T10:42:40;99906.09;;;28.62;41.60
62152;BME280;48139;47.474;19.034;2023-07-28T10:45:43;99902.34;;;28.57;42.31
62152;BME280;48139;47.474;19.034;2023-07-28T10:48:49;99893.78;;;28.46;42.62
62152;BME280;48139;47.474;19.034;2023-07-28T10:51:52;99900.13;;;28.67;41.78
62152;BME280;48139;47.474;19.034;2023-07-28T10:54:55;99903.59;;;28.54;42.27
62152;BME280;48139;47.474;19.034;2023-07-28T10:57:57;99888.06;;;28.63;42.59
62152;BME280;48139;47.474;19.034;2023-07-28T11:01:02;99894.25;;;28.91;41.94
62152;BME280;48139;47.474;19.034;2023-07-28T11:04:14;99891.38;;;29.12;42.11
62152;BME280;48139;47.474;19.034;2023-07-28T11:07:17;99891.41;;;29.19;41.71
62152;BME280;48139;47.474;19.034;2023-07-28T11:10:20;99888.75;;;29.32;41.77
62152;BME280;48139;47.474;19.034;2023-07-28T11:13:23;99896.75;;;29.06;42.54
62152;BME280;48139;47.474;19.034;2023-07-28T11:16:42;99887.59;;;28.94;41.57
62152;BME280;48139;47.474;19.034;2023-07-28T11:19:47;99887.47;;;29.15;41.61
62152;BME280;48139;47.474;19.034;2023-07-28T11:22:55;99892.00;;;29.08;42.00
62152;BME280;48139;47.474;19.034;2023-07-28T11:25:58;99886.41;;;29.09;41.17
62152;BME280;48139;47.474;19.034;2023-07-28T11:29:01;99890.84;;;29.37;40.76
62152;BME280;48139;47.474;19.034;2023-07-28T11:32:04;99892.69;;;29.30;40.94
